sensor_id;sensor_type;location;lat;lon;timestamp;temperature;humidity
38436;DHT22;24220;48.168;14.024;2023-06-10T00:02:23;22.20;91.80
38436;DHT22;24220;48.168;14.024;2023-06-10T00:04:50;22.20;91.90
38436;DHT22;24220;48.168;14.024;2023-06-10T00:07:20;22.10;91.90
38436;DHT22;24220;48.168;14.024;2023-06-10T00:09:47;22.10;91.90
38436;DHT22;24220;48.168;14.024;2023-06-10T00:12:17;22.10;91.80
38436;DHT22;24220;48.168;14.024;2023-06-10T00:14:47;22.00;92.00
38436;DHT22;24220;48.168;14.024;2023-06-10T00:17:17;22.10;91.80
38436;DHT22;24220;48.168;14.024;2023-06-10T00:19:45;22.00;91.90
38436;DHT22;24220;48.168;14.024;2023-06-10T00:22:14;22.00;92.00
38436;DHT22;24220;48.168;14.024;2023-06-10T00:24:41;22.00;92.20
38436;DHT22;24220;48.168;14.024;2023-06-10T00:27:11;22.00;92.30
38436;DHT22;24220;48.168;14.024;2023-06-10T00:29:39;22.00;92.20
38436;DHT22;24220;48.168;14.024;2023-06-10T00:32:07;21.90;92.20
38436;DHT22;24220;48.168;14.024;2023-06-10T00:34:34;21.90;92.20
38436;DHT22;24220;48.168;14.024;2023-06-10T00:37:02;21.90;92.20
38436;DHT22;24220;48.168;14.024;2023-06-10T00:39:30;21.90;92.30
38436;DHT22;24220;48.168;14.024;2023-06-10T00:41:59;21.90;92.30
38436;DHT22;24220;48.168;14.024;2023-06-10T00:44:27;21.80;92.20
38436;DHT22;24220;48.168;14.024;2023-06-10T00:46:54;21.80;92.20
38436;DHT22;24220;48.168;14.024;2023-06-10T00:49:23;21.80;92.20
38436;DHT22;24220;48.168;14.024;2023-06-10T00:51:51;21.80;92.30
38436;DHT22;24220;48.168;14.024;2023-06-10T00:54:20;21.80;92.20
38436;DHT22;24220;48.168;14.024;2023-06-10T00:56:48;21.70;92.20
38436;DHT22;24220;48.168;14.024;2023-06-10T00:59:16;21.70;92.20
38436;DHT22;24220;48.168;14.024;2023-06-10T01:01:45;21.70;92.30
38436;DHT22;24220;48.168;14.024;2023-06-10T01:04:14;21.70;92.20
38436;DHT22;24220;48.168;14.024;2023-06-10T01:06:54;21.60;92.30
38436;DHT22;24220;48.168;14.024;2023-06-10T01:09:41;21.60;91.70
38436;DHT22;24220;48.168;14.024;2023-06-10T01:14:46;21.60;92.00
38436;DHT22;24220;48.168;14.024;2023-06-10T01:17:15;21.60;92.50
38436;DHT22;24220;48.168;14.024;2023-06-10T01:19:56;21.50;92.60
38436;DHT22;24220;48.168;14.024;2023-06-10T01:22:29;21.50;92.00
38436;DHT22;24220;48.168;14.024;2023-06-10T01:25:02;21.50;92.30
38436;DHT22;24220;48.168;14.024;2023-06-10T01:27:33;21.50;92.30
38436;DHT22;24220;48.168;14.024;2023-06-10T01:30:15;21.50;92.60
38436;DHT22;24220;48.168;14.024;2023-06-10T01:32:50;21.50;92.00
38436;DHT22;24220;48.168;14.024;2023-06-10T01:35:19;21.40;92.30
38436;DHT22;24220;48.168;14.024;2023-06-10T01:37:53;21.40;92.50
38436;DHT22;24220;48.168;14.024;2023-06-10T01:40:23;21.40;92.30
38436;DHT22;24220;48.168;14.024;2023-06-10T01:42:53;21.40;92.60
38436;DHT22;24220;48.168;14.024;2023-06-10T01:45:23;21.40;92.50
38436;DHT22;24220;48.168;14.024;2023-06-10T01:47:51;21.30;92.50
38436;DHT22;24220;48.168;14.024;2023-06-10T01:50:20;21.30;92.60
38436;DHT22;24220;48.168;14.024;2023-06-10T01:52:48;21.30;92.30
38436;DHT22;24220;48.168;14.024;2023-06-10T01:55:15;21.30;92.70
38436;DHT22;24220;48.168;14.024;2023-06-10T01:57:45;21.20;92.70
38436;DHT22;24220;48.168;14.024;2023-06-10T02:00:13;21.20;92.40
38436;DHT22;24220;48.168;14.024;2023-06-10T02:02:46;21.20;92.70
38436;DHT22;24220;48.168;14.024;2023-06-10T02:05:15;21.20;92.80
38436;DHT22;24220;48.168;14.024;2023-06-10T02:07:47;21.10;92.80
38436;DHT22;24220;48.168;14.024;2023-06-10T02:10:17;21.10;92.50
38436;DHT22;24220;48.168;14.024;2023-06-10T02:12:44;21.10;92.60
38436;DHT22;24220;48.168;14.024;2023-06-10T02:15:11;21.10;93.00
38436;DHT22;24220;48.168;14.024;2023-06-10T02:17:39;21.10;93.10
38436;DHT22;24220;48.168;14.024;2023-06-10T02:20:06;21.10;92.90
38436;DHT22;24220;48.168;14.024;2023-06-10T02:22:35;21.10;93.00
38436;DHT22;24220;48.168;14.024;2023-06-10T02:25:03;21.00;93.20
38436;DHT22;24220;48.168;14.024;2023-06-10T02:27:31;21.00;93.10
38436;DHT22;24220;48.168;14.024;2023-06-10T02:29:58;21.10;93.10
38436;DHT22;24220;48.168;14.024;2023-06-10T02:32:28;21.00;93.20
38436;DHT22;24220;48.168;14.024;2023-06-10T02:34:55;21.00;93.00
38436;DHT22;24220;48.168;14.024;2023-06-10T02:37:22;21.00;93.20
38436;DHT22;24220;48.168;14.024;2023-06-10T02:39:54;21.00;93.10
38436;DHT22;24220;48.168;14.024;2023-06-10T02:42:22;20.90;92.70
38436;DHT22;24220;48.168;14.024;2023-06-10T02:44:49;21.00;93.10
38436;DHT22;24220;48.168;14.024;2023-06-10T02:47:18;20.90;93.00
38436;DHT22;24220;48.168;14.024;2023-06-10T02:49:46;20.90;93.10
38436;DHT22;24220;48.168;14.024;2023-06-10T02:52:13;20.90;92.90
38436;DHT22;24220;48.168;14.024;2023-06-10T02:54:40;20.90;93.00
38436;DHT22;24220;48.168;14.024;2023-06-10T02:57:08;20.90;93.00
38436;DHT22;24220;48.168;14.024;2023-06-10T02:59:37;20.80;93.10
38436;DHT22;24220;48.168;14.024;2023-06-10T03:02:07;20.80;93.10
38436;DHT22;24220;48.168;14.024;2023-06-10T03:04:34;20.80;92.90
38436;DHT22;24220;48.168;14.024;2023-06-10T03:07:01;20.80;93.00
38436;DHT22;24220;48.168;14.024;2023-06-10T03:09:31;20.80;93.10
38436;DHT22;24220;48.168;14.024;2023-06-10T03:11:58;20.80;93.20
38436;DHT22;24220;48.168;14.024;2023-06-10T03:14:28;20.80;93.20
38436;DHT22;24220;48.168;14.024;2023-06-10T03:16:55;20.80;93.00
38436;DHT22;24220;48.168;14.024;2023-06-10T03:19:22;20.80;93.20
38436;DHT22;24220;48.168;14.024;2023-06-10T03:22:11;20.80;93.10
38436;DHT22;24220;48.168;14.024;2023-06-10T03:24:41;20.80;92.30
38436;DHT22;24220;48.168;14.024;2023-06-10T03:27:10;20.80;93.30
38436;DHT22;24220;48.168;14.024;2023-06-10T03:29:40;20.80;93.30
38436;DHT22;24220;48.168;14.024;2023-06-10T03:32:07;20.80;93.00
38436;DHT22;24220;48.168;14.024;2023-06-10T03:34:37;20.80;93.30
38436;DHT22;24220;48.168;14.024;2023-06-10T03:37:05;20.80;93.20
38436;DHT22;24220;48.168;14.024;2023-06-10T03:39:33;20.80;93.20
38436;DHT22;24220;48.168;14.024;2023-06-10T03:42:00;20.80;93.20
38436;DHT22;24220;48.168;14.024;2023-06-10T03:44:29;20.70;93.40
38436;DHT22;24220;48.168;14.024;2023-06-10T03:46:57;20.80;93.30
38436;DHT22;24220;48.168;14.024;2023-06-10T03:49:24;20.70;93.30
38436;DHT22;24220;48.168;14.024;2023-06-10T03:51:56;20.70;93.40
38436;DHT22;24220;48.168;14.024;2023-06-10T03:54:24;20.70;93.40
38436;DHT22;24220;48.168;14.024;2023-06-10T03:56:51;20.80;93.50
38436;DHT22;24220;48.168;14.024;2023-06-10T03:59:19;20.70;93.30
38436;DHT22;24220;48.168;14.024;2023-06-10T04:01:46;20.70;93.20
38436;DHT22;24220;48.168;14.024;2023-06-10T04:04:16;20.70;93.20
38436;DHT22;24220;48.168;14.024;2023-06-10T04:06:44;20.70;92.80
38436;DHT22;24220;48.168;14.024;2023-06-10T04:09:13;20.70;93.20
38436;DHT22;24220;48.168;14.024;2023-06-10T04:11:41;20.70;92.90
38436;DHT22;24220;48.168;14.024;2023-06-10T04:14:08;20.70;93.20
38436;DHT22;24220;48.168;14.024;2023-06-10T04:16:38;20.70;93.20
38436;DHT22;24220;48.168;14.024;2023-06-10T04:19:08;20.70;93.00
38436;DHT22;24220;48.168;14.024;2023-06-10T04:21:37;20.70;93.30
38436;DHT22;24220;48.168;14.024;2023-06-10T04:24:07;20.60;93.30
38436;DHT22;24220;48.168;14.024;2023-06-10T04:26:37;20.60;93.50
38436;DHT22;24220;48.168;14.024;2023-06-10T04:29:09;20.60;92.80
38436;DHT22;24220;48.168;14.024;2023-06-10T04:31:37;20.60;92.80
38436;DHT22;24220;48.168;14.024;2023-06-10T04:34:04;20.60;93.10
38436;DHT22;24220;48.168;14.024;2023-06-10T04:36:32;20.60;93.10
38436;DHT22;24220;48.168;14.024;2023-06-10T04:39:02;20.60;93.20
38436;DHT22;24220;48.168;14.024;2023-06-10T04:41:32;20.50;93.00
38436;DHT22;24220;48.168;14.024;2023-06-10T04:44:00;20.50;93.20
38436;DHT22;24220;48.168;14.024;2023-06-10T04:46:29;20.50;93.30
38436;DHT22;24220;48.168;14.024;2023-06-10T04:48:59;20.60;93.30
38436;DHT22;24220;48.168;14.024;2023-06-10T04:51:26;20.50;93.30
38436;DHT22;24220;48.168;14.024;2023-06-10T04:53:53;20.50;93.50
38436;DHT22;24220;48.168;14.024;2023-06-10T04:56:20;20.50;93.60
38436;DHT22;24220;48.168;14.024;2023-06-10T04:58:49;20.60;93.70
38436;DHT22;24220;48.168;14.024;2023-06-10T05:01:17;20.60;93.80
38436;DHT22;24220;48.168;14.024;2023-06-10T05:03:44;20.50;93.70
38436;DHT22;24220;48.168;14.024;2023-06-10T05:06:11;20.50;93.70
38436;DHT22;24220;48.168;14.024;2023-06-10T05:08:39;20.60;93.60
38436;DHT22;24220;48.168;14.024;2023-06-10T05:11:11;20.60;93.60
38436;DHT22;24220;48.168;14.024;2023-06-10T05:13:38;20.60;93.60
38436;DHT22;24220;48.168;14.024;2023-06-10T05:16:07;20.60;93.70
38436;DHT22;24220;48.168;14.024;2023-06-10T05:18:34;20.60;93.70
38436;DHT22;24220;48.168;14.024;2023-06-10T05:21:02;20.60;93.80
38436;DHT22;24220;48.168;14.024;2023-06-10T05:23:30;20.70;93.80
38436;DHT22;24220;48.168;14.024;2023-06-10T05:25:57;20.70;94.00
38436;DHT22;24220;48.168;14.024;2023-06-10T05:28:27;20.70;94.00
38436;DHT22;24220;48.168;14.024;2023-06-10T05:30:55;20.70;93.60
38436;DHT22;24220;48.168;14.024;2023-06-10T05:33:22;20.70;94.00
38436;DHT22;24220;48.168;14.024;2023-06-10T05:35:49;20.70;93.90
38436;DHT22;24220;48.168;14.024;2023-06-10T05:38:17;20.80;93.90
38436;DHT22;24220;48.168;14.024;2023-06-10T05:40:46;20.80;93.90
38436;DHT22;24220;48.168;14.024;2023-06-10T05:43:16;20.80;94.20
38436;DHT22;24220;48.168;14.024;2023-06-10T05:45:43;20.80;94.00
38436;DHT22;24220;48.168;14.024;2023-06-10T05:48:11;20.90;94.00
38436;DHT22;24220;48.168;14.024;2023-06-10T05:50:41;20.90;93.80
38436;DHT22;24220;48.168;14.024;2023-06-10T05:53:12;20.90;94.00
38436;DHT22;24220;48.168;14.024;2023-06-10T05:55:45;20.90;93.80
38436;DHT22;24220;48.168;14.024;2023-06-10T05:58:13;21.00;94.10
38436;DHT22;24220;48.168;14.024;2023-06-10T06:00:41;21.00;94.00
38436;DHT22;24220;48.168;14.024;2023-06-10T06:03:09;21.10;94.00
38436;DHT22;24220;48.168;14.024;2023-06-10T06:05:37;21.10;94.00
38436;DHT22;24220;48.168;14.024;2023-06-10T06:08:08;21.10;94.10
38436;DHT22;24220;48.168;14.024;2023-06-10T06:10:36;21.20;94.10
38436;DHT22;24220;48.168;14.024;2023-06-10T06:13:03;21.20;94.20
38436;DHT22;24220;48.168;14.024;2023-06-10T06:15:30;21.20;94.30
38436;DHT22;24220;48.168;14.024;2023-06-10T06:18:02;21.30;94.50
38436;DHT22;24220;48.168;14.024;2023-06-10T06:20:30;21.30;94.40
38436;DHT22;24220;48.168;14.024;2023-06-10T06:22:57;21.40;94.60
38436;DHT22;24220;48.168;14.024;2023-06-10T06:25:27;21.50;94.60
38436;DHT22;24220;48.168;14.024;2023-06-10T06:27:56;21.50;94.50
38436;DHT22;24220;48.168;14.024;2023-06-10T06:30:23;21.60;94.60
38436;DHT22;24220;48.168;14.024;2023-06-10T06:32:51;21.70;94.70
38436;DHT22;24220;48.168;14.024;2023-06-10T06:35:19;21.80;94.60
38436;DHT22;24220;48.168;14.024;2023-06-10T06:37:47;21.90;94.50
38436;DHT22;24220;48.168;14.024;2023-06-10T06:40:15;22.00;94.60
38436;DHT22;24220;48.168;14.024;2023-06-10T06:42:42;22.10;94.70
38436;DHT22;24220;48.168;14.024;2023-06-10T06:45:10;22.20;94.50
38436;DHT22;24220;48.168;14.024;2023-06-10T06:47:40;22.40;94.70
38436;DHT22;24220;48.168;14.024;2023-06-10T06:50:08;22.50;94.70
38436;DHT22;24220;48.168;14.024;2023-06-10T06:52:36;22.70;94.30
38436;DHT22;24220;48.168;14.024;2023-06-10T06:55:04;22.80;94.40
38436;DHT22;24220;48.168;14.024;2023-06-10T06:57:32;23.00;94.30
38436;DHT22;24220;48.168;14.024;2023-06-10T06:59:59;23.10;94.00
38436;DHT22;24220;48.168;14.024;2023-06-10T07:02:26;23.20;94.00
38436;DHT22;24220;48.168;14.024;2023-06-10T07:04:54;23.30;93.80
38436;DHT22;24220;48.168;14.024;2023-06-10T07:07:23;23.40;93.40
38436;DHT22;24220;48.168;14.024;2023-06-10T07:09:50;23.50;93.40
38436;DHT22;24220;48.168;14.024;2023-06-10T07:12:18;23.60;93.30
38436;DHT22;24220;48.168;14.024;2023-06-10T07:14:45;23.70;93.40
38436;DHT22;24220;48.168;14.024;2023-06-10T07:17:15;23.90;93.40
38436;DHT22;24220;48.168;14.024;2023-06-10T07:19:43;23.90;92.80
38436;DHT22;24220;48.168;14.024;2023-06-10T07:22:11;24.10;92.20
38436;DHT22;24220;48.168;14.024;2023-06-10T07:24:38;24.10;91.20
38436;DHT22;24220;48.168;14.024;2023-06-10T07:27:06;24.30;89.80
38436;DHT22;24220;48.168;14.024;2023-06-10T07:29:36;24.40;91.30
38436;DHT22;24220;48.168;14.024;2023-06-10T07:32:06;24.40;91.80
38436;DHT22;24220;48.168;14.024;2023-06-10T07:34:36;24.50;91.70
38436;DHT22;24220;48.168;14.024;2023-06-10T07:37:06;24.60;91.90
38436;DHT22;24220;48.168;14.024;2023-06-10T07:39:35;24.60;91.80
38436;DHT22;24220;48.168;14.024;2023-06-10T07:42:02;24.70;92.00
38436;DHT22;24220;48.168;14.024;2023-06-10T07:44:31;24.80;91.20
38436;DHT22;24220;48.168;14.024;2023-06-10T07:46:58;24.90;91.10
38436;DHT22;24220;48.168;14.024;2023-06-10T07:49:29;25.00;91.20
38436;DHT22;24220;48.168;14.024;2023-06-10T07:51:59;25.10;91.50
38436;DHT22;24220;48.168;14.024;2023-06-10T07:54:26;25.20;91.40
38436;DHT22;24220;48.168;14.024;2023-06-10T07:56:56;25.30;90.10
38436;DHT22;24220;48.168;14.024;2023-06-10T07:59:23;25.30;90.50
38436;DHT22;24220;48.168;14.024;2023-06-10T08:01:53;25.40;89.20
38436;DHT22;24220;48.168;14.024;2023-06-10T08:04:22;25.50;88.80
38436;DHT22;24220;48.168;14.024;2023-06-10T08:06:50;25.60;90.30
38436;DHT22;24220;48.168;14.024;2023-06-10T08:09:23;25.60;87.40
38436;DHT22;24220;48.168;14.024;2023-06-10T08:11:52;25.70;87.90
38436;DHT22;24220;48.168;14.024;2023-06-10T08:14:20;25.80;89.90
38436;DHT22;24220;48.168;14.024;2023-06-10T08:16:49;25.90;89.20
38436;DHT22;24220;48.168;14.024;2023-06-10T08:19:20;26.00;88.10
38436;DHT22;24220;48.168;14.024;2023-06-10T08:21:47;26.10;88.80
38436;DHT22;24220;48.168;14.024;2023-06-10T08:24:15;26.20;86.80
38436;DHT22;24220;48.168;14.024;2023-06-10T08:26:46;26.30;89.00
38436;DHT22;24220;48.168;14.024;2023-06-10T08:29:13;26.40;86.60
38436;DHT22;24220;48.168;14.024;2023-06-10T08:31:43;26.40;88.40
38436;DHT22;24220;48.168;14.024;2023-06-10T08:34:11;26.40;88.00
38436;DHT22;24220;48.168;14.024;2023-06-10T08:36:39;26.40;88.40
38436;DHT22;24220;48.168;14.024;2023-06-10T08:39:06;26.40;88.00
38436;DHT22;24220;48.168;14.024;2023-06-10T08:41:37;26.50;85.80
38436;DHT22;24220;48.168;14.024;2023-06-10T08:44:22;26.50;86.00
38436;DHT22;24220;48.168;14.024;2023-06-10T08:46:59;26.50;86.20
38436;DHT22;24220;48.168;14.024;2023-06-10T08:49:30;26.60;87.40
38436;DHT22;24220;48.168;14.024;2023-06-10T08:51:59;26.60;87.80
38436;DHT22;24220;48.168;14.024;2023-06-10T08:54:32;26.60;84.70
38436;DHT22;24220;48.168;14.024;2023-06-10T08:57:03;26.70;85.40
38436;DHT22;24220;48.168;14.024;2023-06-10T08:59:34;26.70;84.60
38436;DHT22;24220;48.168;14.024;2023-06-10T09:02:02;26.70;86.30
38436;DHT22;24220;48.168;14.024;2023-06-10T09:04:34;26.80;85.30
38436;DHT22;24220;48.168;14.024;2023-06-10T09:07:05;26.80;82.90
38436;DHT22;24220;48.168;14.024;2023-06-10T09:09:36;26.80;86.10
38436;DHT22;24220;48.168;14.024;2023-06-10T09:12:04;26.90;85.30
38436;DHT22;24220;48.168;14.024;2023-06-10T09:14:32;27.00;86.60
38436;DHT22;24220;48.168;14.024;2023-06-10T09:16:59;27.00;85.50
38436;DHT22;24220;48.168;14.024;2023-06-10T09:19:27;27.10;85.60
38436;DHT22;24220;48.168;14.024;2023-06-10T09:22:00;27.20;87.00
38436;DHT22;24220;48.168;14.024;2023-06-10T09:24:30;27.30;87.40
38436;DHT22;24220;48.168;14.024;2023-06-10T09:27:08;27.30;87.10
38436;DHT22;24220;48.168;14.024;2023-06-10T09:32:18;27.50;82.50
38436;DHT22;24220;48.168;14.024;2023-06-10T09:34:48;27.70;83.90
38436;DHT22;24220;48.168;14.024;2023-06-10T09:37:24;27.80;83.00
38436;DHT22;24220;48.168;14.024;2023-06-10T09:40:05;27.90;82.70
38436;DHT22;24220;48.168;14.024;2023-06-10T09:42:35;28.00;82.10
38436;DHT22;24220;48.168;14.024;2023-06-10T09:45:03;28.10;82.00
38436;DHT22;24220;48.168;14.024;2023-06-10T09:47:33;28.20;81.70
38436;DHT22;24220;48.168;14.024;2023-06-10T09:50:06;28.20;79.70
38436;DHT22;24220;48.168;14.024;2023-06-10T09:52:37;28.20;77.10
38436;DHT22;24220;48.168;14.024;2023-06-10T09:55:09;28.30;81.40
38436;DHT22;24220;48.168;14.024;2023-06-10T09:57:40;28.30;81.60
38436;DHT22;24220;48.168;14.024;2023-06-10T10:00:13;28.40;82.90
38436;DHT22;24220;48.168;14.024;2023-06-10T10:05:18;28.60;80.70
38436;DHT22;24220;48.168;14.024;2023-06-10T10:07:46;28.70;79.10
38436;DHT22;24220;48.168;14.024;2023-06-10T10:10:15;28.70;78.10
38436;DHT22;24220;48.168;14.024;2023-06-10T10:12:46;28.70;78.20
38436;DHT22;24220;48.168;14.024;2023-06-10T10:15:15;28.80;76.10
38436;DHT22;24220;48.168;14.024;2023-06-10T10:20:26;29.00;83.20
38436;DHT22;24220;48.168;14.024;2023-06-10T10:22:58;29.00;76.00
38436;DHT22;24220;48.168;14.024;2023-06-10T10:25:32;29.00;76.00
38436;DHT22;24220;48.168;14.024;2023-06-10T10:28:06;28.90;74.20
38436;DHT22;24220;48.168;14.024;2023-06-10T10:30:44;28.80;75.20
38436;DHT22;24220;48.168;14.024;2023-06-10T10:33:19;28.80;75.50
38436;DHT22;24220;48.168;14.024;2023-06-10T10:35:47;28.80;78.70
38436;DHT22;24220;48.168;14.024;2023-06-10T10:38:15;28.80;78.80
38436;DHT22;24220;48.168;14.024;2023-06-10T10:40:46;28.80;80.50
38436;DHT22;24220;48.168;14.024;2023-06-10T10:43:16;28.80;77.70
38436;DHT22;24220;48.168;14.024;2023-06-10T10:46:01;29.00;79.20
38436;DHT22;24220;48.168;14.024;2023-06-10T10:48:37;29.00;78.40
38436;DHT22;24220;48.168;14.024;2023-06-10T10:51:05;29.10;75.60
38436;DHT22;24220;48.168;14.024;2023-06-10T10:53:32;29.20;77.70
38436;DHT22;24220;48.168;14.024;2023-06-10T10:56:08;29.30;78.00
38436;DHT22;24220;48.168;14.024;2023-06-10T10:58:39;29.50;76.50
38436;DHT22;24220;48.168;14.024;2023-06-10T11:01:13;29.60;76.70
38436;DHT22;24220;48.168;14.024;2023-06-10T11:03:45;29.70;73.40
38436;DHT22;24220;48.168;14.024;2023-06-10T11:06:17;29.70;74.10
38436;DHT22;24220;48.168;14.024;2023-06-10T11:08:46;29.80;74.20
38436;DHT22;24220;48.168;14.024;2023-06-10T11:11:24;29.80;73.10
38436;DHT22;24220;48.168;14.024;2023-06-10T11:16:42;29.80;72.80
38436;DHT22;24220;48.168;14.024;2023-06-10T11:19:10;29.80;73.30
38436;DHT22;24220;48.168;14.024;2023-06-10T11:22:15;29.90;78.00
38436;DHT22;24220;48.168;14.024;2023-06-10T11:24:50;30.10;78.00
38436;DHT22;24220;48.168;14.024;2023-06-10T11:27:23;30.20;77.50
38436;DHT22;24220;48.168;14.024;2023-06-10T11:30:18;30.40;77.00
38436;DHT22;24220;48.168;14.024;2023-06-10T11:32:52;30.70;77.10
38436;DHT22;24220;48.168;14.024;2023-06-10T11:35:26;30.80;75.30
38436;DHT22;24220;48.168;14.024;2023-06-10T11:37:54;30.90;76.80
38436;DHT22;24220;48.168;14.024;2023-06-10T11:40:22;31.00;76.70
38436;DHT22;24220;48.168;14.024;2023-06-10T11:42:49;31.00;76.30
38436;DHT22;24220;48.168;14.024;2023-06-10T11:45:18;31.00;76.30
38436;DHT22;24220;48.168;14.024;2023-06-10T11:48:00;31.10;74.70
38436;DHT22;24220;48.168;14.024;2023-06-10T11:50:32;31.00;72.30
38436;DHT22;24220;48.168;14.024;2023-06-10T11:53:00;31.00;70.80
38436;DHT22;24220;48.168;14.024;2023-06-10T11:55:47;30.90;72.70
38436;DHT22;24220;48.168;14.024;2023-06-10T11:58:19;30.70;72.70
38436;DHT22;24220;48.168;14.024;2023-06-10T12:00:54;30.50;72.30
38436;DHT22;24220;48.168;14.024;2023-06-10T12:03:38;30.30;70.90
38436;DHT22;24220;48.168;14.024;2023-06-10T12:06:08;30.10;71.90
38436;DHT22;24220;48.168;14.024;2023-06-10T12:08:42;29.90;73.70
38436;DHT22;24220;48.168;14.024;2023-06-10T12:11:10;29.70;72.50
38436;DHT22;24220;48.168;14.024;2023-06-10T12:13:46;29.50;73.50
38436;DHT22;24220;48.168;14.024;2023-06-10T12:16:18;29.20;74.80
38436;DHT22;24220;48.168;14.024;2023-06-10T12:18:46;29.10;80.00
38436;DHT22;24220;48.168;14.024;2023-06-10T12:21:23;28.80;80.70
38436;DHT22;24220;48.168;14.024;2023-06-10T12:24:04;28.50;79.10
38436;DHT22;24220;48.168;14.024;2023-06-10T12:26:43;28.30;79.80
38436;DHT22;24220;48.168;14.024;2023-06-10T12:29:33;28.10;82.50
38436;DHT22;24220;48.168;14.024;2023-06-10T12:32:02;27.80;82.20
38436;DHT22;24220;48.168;14.024;2023-06-10T12:37:04;27.50;83.30
38436;DHT22;24220;48.168;14.024;2023-06-10T12:39:33;27.40;84.60
38436;DHT22;24220;48.168;14.024;2023-06-10T12:42:00;27.30;84.50
38436;DHT22;24220;48.168;14.024;2023-06-10T12:44:32;27.20;85.20
38436;DHT22;24220;48.168;14.024;2023-06-10T12:47:06;27.20;83.60
38436;DHT22;24220;48.168;14.024;2023-06-10T12:49:34;27.10;86.10
38436;DHT22;24220;48.168;14.024;2023-06-10T12:52:03;27.20;87.00
38436;DHT22;24220;48.168;14.024;2023-06-10T12:54:30;27.40;86.90
38436;DHT22;24220;48.168;14.024;2023-06-10T12:56:58;27.60;88.20
38436;DHT22;24220;48.168;14.024;2023-06-10T12:59:26;28.10;88.30
38436;DHT22;24220;48.168;14.024;2023-06-10T13:01:55;28.80;88.50
38436;DHT22;24220;48.168;14.024;2023-06-10T13:04:24;29.70;89.10
38436;DHT22;24220;48.168;14.024;2023-06-10T13:06:52;30.70;87.60
38436;DHT22;24220;48.168;14.024;2023-06-10T13:09:21;31.80;84.10
38436;DHT22;24220;48.168;14.024;2023-06-10T13:11:49;32.80;79.60
38436;DHT22;24220;48.168;14.024;2023-06-10T13:14:16;33.70;77.60
38436;DHT22;24220;48.168;14.024;2023-06-10T13:16:46;34.40;75.00
38436;DHT22;24220;48.168;14.024;2023-06-10T13:19:14;34.90;71.70
38436;DHT22;24220;48.168;14.024;2023-06-10T13:21:47;35.20;70.00
38436;DHT22;24220;48.168;14.024;2023-06-10T13:24:14;35.40;69.40
38436;DHT22;24220;48.168;14.024;2023-06-10T13:26:42;35.40;67.30
38436;DHT22;24220;48.168;14.024;2023-06-10T13:29:13;35.30;65.50
38436;DHT22;24220;48.168;14.024;2023-06-10T13:31:42;35.00;66.10
38436;DHT22;24220;48.168;14.024;2023-06-10T13:34:11;34.60;66.50
38436;DHT22;24220;48.168;14.024;2023-06-10T13:36:38;34.20;66.50
38436;DHT22;24220;48.168;14.024;2023-06-10T13:39:06;33.70;68.20
38436;DHT22;24220;48.168;14.024;2023-06-10T13:41:34;33.30;68.20
38436;DHT22;24220;48.168;14.024;2023-06-10T13:44:04;32.70;69.40
38436;DHT22;24220;48.168;14.024;2023-06-10T13:46:31;32.30;71.80
38436;DHT22;24220;48.168;14.024;2023-06-10T13:49:01;31.80;72.80
38436;DHT22;24220;48.168;14.024;2023-06-10T13:51:29;31.30;73.60
38436;DHT22;24220;48.168;14.024;2023-06-10T13:53:56;30.90;75.50
38436;DHT22;24220;48.168;14.024;2023-06-10T13:56:26;30.50;76.30
38436;DHT22;24220;48.168;14.024;2023-06-10T13:58:53;30.00;77.90
38436;DHT22;24220;48.168;14.024;2023-06-10T14:01:20;29.70;78.60
38436;DHT22;24220;48.168;14.024;2023-06-10T14:03:48;29.30;79.50
38436;DHT22;24220;48.168;14.024;2023-06-10T14:06:18;28.90;81.00
38436;DHT22;24220;48.168;14.024;2023-06-10T14:08:46;28.70;81.80
38436;DHT22;24220;48.168;14.024;2023-06-10T14:11:15;28.40;80.10
38436;DHT22;24220;48.168;14.024;2023-06-10T14:13:48;28.10;82.60
38436;DHT22;24220;48.168;14.024;2023-06-10T14:16:26;27.90;82.90
38436;DHT22;24220;48.168;14.024;2023-06-10T14:18:54;27.60;84.40
38436;DHT22;24220;48.168;14.024;2023-06-10T14:21:23;27.50;85.00
38436;DHT22;24220;48.168;14.024;2023-06-10T14:23:53;27.20;84.60
38436;DHT22;24220;48.168;14.024;2023-06-10T14:26:20;27.00;85.10
38436;DHT22;24220;48.168;14.024;2023-06-10T14:28:49;26.80;86.10
38436;DHT22;24220;48.168;14.024;2023-06-10T14:31:22;26.60;86.70
38436;DHT22;24220;48.168;14.024;2023-06-10T14:33:54;26.40;88.00
38436;DHT22;24220;48.168;14.024;2023-06-10T14:36:24;26.20;88.70
38436;DHT22;24220;48.168;14.024;2023-06-10T14:38:51;26.00;88.60
38436;DHT22;24220;48.168;14.024;2023-06-10T14:41:18;25.90;87.00
38436;DHT22;24220;48.168;14.024;2023-06-10T14:43:46;25.70;86.80
38436;DHT22;24220;48.168;14.024;2023-06-10T14:46:13;25.60;87.10
38436;DHT22;24220;48.168;14.024;2023-06-10T14:48:43;25.40;89.80
38436;DHT22;24220;48.168;14.024;2023-06-10T14:51:10;25.30;89.90
38436;DHT22;24220;48.168;14.024;2023-06-10T14:53:40;25.10;90.10
38436;DHT22;24220;48.168;14.024;2023-06-10T14:56:08;25.00;90.20
38436;DHT22;24220;48.168;14.024;2023-06-10T14:58:35;24.90;90.60
38436;DHT22;24220;48.168;14.024;2023-06-10T15:01:05;24.70;90.40
38436;DHT22;24220;48.168;14.024;2023-06-10T15:03:33;24.60;90.90
38436;DHT22;24220;48.168;14.024;2023-06-10T15:06:03;24.60;90.80
38436;DHT22;24220;48.168;14.024;2023-06-10T15:08:30;24.50;91.00
38436;DHT22;24220;48.168;14.024;2023-06-10T15:11:00;24.40;91.10
38436;DHT22;24220;48.168;14.024;2023-06-10T15:13:32;24.40;91.30
38436;DHT22;24220;48.168;14.024;2023-06-10T15:16:00;24.40;91.20
38436;DHT22;24220;48.168;14.024;2023-06-10T15:18:30;24.40;91.70
38436;DHT22;24220;48.168;14.024;2023-06-10T15:20:57;24.40;91.70
38436;DHT22;24220;48.168;14.024;2023-06-10T15:23:24;24.40;91.60
38436;DHT22;24220;48.168;14.024;2023-06-10T15:25:56;24.40;91.50
38436;DHT22;24220;48.168;14.024;2023-06-10T15:28:24;24.50;91.60
38436;DHT22;24220;48.168;14.024;2023-06-10T15:30:59;24.50;91.70
38436;DHT22;24220;48.168;14.024;2023-06-10T15:33:26;24.60;91.60
38436;DHT22;24220;48.168;14.024;2023-06-10T15:35:58;24.60;91.50
38436;DHT22;24220;48.168;14.024;2023-06-10T15:38:28;24.70;91.30
38436;DHT22;24220;48.168;14.024;2023-06-10T15:40:56;24.80;91.80
38436;DHT22;24220;48.168;14.024;2023-06-10T15:43:23;24.80;90.90
38436;DHT22;24220;48.168;14.024;2023-06-10T15:45:51;24.80;90.80
38436;DHT22;24220;48.168;14.024;2023-06-10T15:48:18;24.90;90.70